Zuidlaren, Netherlands
Current Conditions -  °F | °C
As of 2:25 AM on Monday 24 Nov 2014 (Local Time) from EHGG Reporting Station
Drizzle Drizzle  
Wind Chill: 44°   Ceiling: 500
Heat Index: 48°   Visibility: 4mi
Dew Point: 46°   Wind: 9mph
Humidity: 93%   Direction: 290°WNW
Pressure: 29.97"   Gusts: NA
Location:  53.09°N, 6.68°E
Report Text: EHGG 240125Z AUTO 29008KT 260V330 7000 DZ FEW004 BKN005 BKN006BKN015CB 09/08 Q1015 REDZ
Loading
Personal Weather Stations






























Interactive Weather Map New forecast layout! Learn more

10-Day Weather Forecast

Advertisements
Track Severe Weather on mobile